Time;durP1;ratioP1;P1;durP2;ratioP2;P2;SDS_P1;SDS_P2;PMS_P1;PMS_P2;Temp;Humidity;BMP_temperature;BMP_pressure;BME280_temperature;BME280_humidity;BME280_pressure;Samples;Min_cycle;Max_cycle;Signal;HPM_P1;HPM_P2
2022/03/29 00:00:39;;;;;;;47.55;24.65;;;12.20;99.90;;;;;;4982732;28;20247;-71
2022/03/29 00:03:06;;;;;;;48.15;23.55;;;12.20;99.90;;;;;;4965957;28;20199;-71
2022/03/29 00:05:32;;;;;;;50.78;23.63;;;12.30;99.90;;;;;;4973796;28;20673;-71
2022/03/29 00:07:58;;;;;;;51.70;24.60;;;12.30;99.90;;;;;;4985067;28;20221;-70
2022/03/29 00:10:24;;;;;;;50.50;24.40;;;12.30;99.90;;;;;;4979275;28;20188;-70
2022/03/29 00:12:53;;;;;;;48.50;24.30;;;12.10;99.90;;;;;;4982823;28;20192;-70
2022/03/29 00:15:20;;;;;;;51.28;21.98;;;12.00;99.90;;;;;;4974314;28;20343;-71
2022/03/29 00:17:46;;;;;;;51.38;25.50;;;11.90;99.90;;;;;;4974211;28;20247;-71
2022/03/29 00:20:12;;;;;;;47.97;23.60;;;11.90;99.90;;;;;;4974095;28;20200;-70
2022/03/29 00:22:38;;;;;;;55.90;23.65;;;11.90;99.90;;;;;;4974108;28;20192;-71
2022/03/29 00:25:05;;;;;;;52.28;24.80;;;12.00;99.90;;;;;;4972741;28;20189;-70
2022/03/29 00:27:30;;;;;;;45.08;24.20;;;12.10;99.90;;;;;;4972724;28;20206;-70
2022/03/29 00:29:56;;;;;;;49.72;27.58;;;12.10;99.90;;;;;;4985473;28;20654;-70
2022/03/29 00:32:22;;;;;;;51.92;25.15;;;12.20;99.90;;;;;;4974576;28;20276;-70
2022/03/29 00:34:47;;;;;;;58.42;25.85;;;12.10;99.90;;;;;;4980255;28;20196;-70
2022/03/29 00:37:13;;;;;;;40.75;23.13;;;12.10;99.90;;;;;;4975553;28;20196;-71
2022/03/29 00:39:39;;;;;;;47.92;24.10;;;12.20;99.90;;;;;;4972970;28;20265;-71
2022/03/29 00:42:05;;;;;;;44.50;25.27;;;12.20;99.90;;;;;;4972938;28;20200;-70
2022/03/29 00:44:33;;;;;;;49.47;25.08;;;12.20;99.90;;;;;;4974818;28;20620;-70
2022/03/29 00:47:00;;;;;;;50.15;26.95;;;12.10;99.90;;;;;;4991303;28;20192;-71
2022/03/29 00:49:27;;;;;;;48.42;25.85;;;12.10;99.90;;;;;;4965110;28;20685;-70
2022/03/29 00:51:58;;;;;;;50.00;26.85;;;12.10;99.90;;;;;;4976330;28;20212;-71
2022/03/29 00:54:30;;;;;;;55.08;25.98;;;12.10;99.90;;;;;;4976433;28;20243;-70
2022/03/29 00:57:00;;;;;;;48.55;25.70;;;11.90;99.90;;;;;;4977402;28;20181;-70
2022/03/29 00:59:26;;;;;;;51.65;25.08;;;12.10;99.90;;;;;;4986373;28;21087;-70
2022/03/29 01:01:58;;;;;;;51.97;25.05;;;12.20;99.90;;;;;;4988810;28;20187;-71
2022/03/29 01:04:28;;;;;;;53.08;26.13;;;12.10;99.90;;;;;;4976036;28;20647;-70
2022/03/29 01:06:58;;;;;;;52.92;25.63;;;12.10;99.90;;;;;;4975495;28;20192;-71
2022/03/29 01:09:29;;;;;;;58.80;27.90;;;12.10;99.90;;;;;;4984042;28;20555;-70
2022/03/29 01:11:55;;;;;;;48.78;25.73;;;12.10;99.90;;;;;;4976142;28;20323;-71
2022/03/29 01:14:22;;;;;;;49.80;23.50;;;12.00;99.90;;;;;;4960230;28;20191;-71
2022/03/29 01:19:35;;;;;;;44.03;24.13;;;12.00;99.90;;;;;;4976615;28;20602;-70
2022/03/29 01:22:09;;;;;;;44.58;24.02;;;11.90;99.90;;;;;;4977018;28;20271;-71
2022/03/29 01:24:37;;;;;;;47.92;23.98;;;11.80;99.90;;;;;;4992754;28;20254;-70
2022/03/29 01:27:05;;;;;;;50.55;26.15;;;11.70;99.90;;;;;;4975992;28;20219;-71
2022/03/29 01:29:32;;;;;;;48.25;25.00;;;11.60;99.90;;;;;;4980437;28;20184;-70
2022/03/29 01:32:01;;;;;;;45.47;24.73;;;11.60;99.90;;;;;;4984802;28;20195;-70
2022/03/29 01:34:27;;;;;;;47.55;26.98;;;11.50;99.90;;;;;;4976768;28;20188;-70
2022/03/29 01:36:53;;;;;;;49.28;24.25;;;11.40;99.90;;;;;;4976699;28;20252;-70
2022/03/29 01:39:18;;;;;;;51.50;26.05;;;11.30;99.90;;;;;;4976352;28;20716;-70
2022/03/29 01:41:44;;;;;;;48.83;23.95;;;11.50;99.90;;;;;;4991603;28;20188;-70
2022/03/29 01:44:10;;;;;;;49.80;25.85;;;11.60;99.90;;;;;;4980500;28;20271;-70
2022/03/29 01:46:37;;;;;;;59.90;28.17;;;11.50;99.90;;;;;;4976444;28;20193;-70
2022/03/29 01:49:04;;;;;;;41.13;22.60;;;11.40;99.90;;;;;;4975486;28;20199;-71
2022/03/29 01:51:30;;;;;;;45.63;24.52;;;11.40;99.90;;;;;;4976329;28;20232;-71
2022/03/29 01:54:02;;;;;;;44.28;23.38;;;11.40;99.90;;;;;;4990946;28;20188;-72
2022/03/29 01:56:34;;;;;;;49.60;23.77;;;11.30;99.90;;;;;;4976304;28;20189;-71
2022/03/29 01:59:06;;;;;;;52.40;24.65;;;11.20;99.90;;;;;;4976319;28;20224;-71
2022/03/29 02:01:47;;;;;;;54.07;24.37;;;11.20;99.90;;;;;;4991795;28;20183;-70
2022/03/29 02:04:14;;;;;;;49.33;21.93;;;11.10;99.90;;;;;;4990680;28;20188;-70
2022/03/29 02:06:41;;;;;;;49.67;25.57;;;11.10;99.90;;;;;;4975056;28;20199;-70
2022/03/29 02:09:07;;;;;;;44.13;23.10;;;11.30;99.90;;;;;;4966268;28;20196;-70
2022/03/29 02:11:35;;;;;;;49.92;25.02;;;11.50;99.90;;;;;;4991011;28;20192;-70
2022/03/29 02:14:02;;;;;;;41.47;23.52;;;11.50;99.90;;;;;;4984908;28;20196;-71
2022/03/29 02:16:28;;;;;;;45.38;24.05;;;11.60;99.90;;;;;;4985641;28;20243;-72
2022/03/29 02:18:54;;;;;;;50.03;23.77;;;11.60;99.90;;;;;;4964738;28;20564;-72
2022/03/29 02:21:20;;;;;;;44.90;22.85;;;11.60;99.90;;;;;;4977918;28;20220;-71
2022/03/29 02:23:45;;;;;;;45.88;21.73;;;11.60;99.90;;;;;;4976536;28;20200;-71
2022/03/29 02:26:11;;;;;;;44.50;21.92;;;11.60;99.90;;;;;;4975928;28;20188;-71
2022/03/29 02:28:37;;;;;;;45.85;23.73;;;11.60;99.90;;;;;;4992985;28;20676;-71
2022/03/29 02:31:03;;;;;;;41.35;22.73;;;11.60;99.90;;;;;;4989021;28;20195;-71
2022/03/29 02:33:28;;;;;;;49.00;22.50;;;11.70;99.90;;;;;;4975205;28;20704;-71
2022/03/29 02:35:54;;;;;;;39.92;23.13;;;11.70;99.90;;;;;;4992657;28;20226;-71
2022/03/29 02:38:20;;;;;;;45.38;23.08;;;11.60;99.90;;;;;;4973244;28;20220;-71
2022/03/29 02:40:49;;;;;;;47.97;22.00;;;11.50;99.90;;;;;;4975313;28;20681;-71
2022/03/29 02:43:15;;;;;;;44.90;23.00;;;11.40;99.90;;;;;;4975919;28;20247;-71
2022/03/29 02:45:41;;;;;;;40.53;23.33;;;11.30;99.90;;;;;;4974596;28;20233;-71
2022/03/29 02:48:07;;;;;;;45.77;22.83;;;11.30;99.90;;;;;;4974352;28;20275;-72
2022/03/29 02:50:32;;;;;;;44.20;22.83;;;11.30;99.90;;;;;;4973783;28;20189;-73
2022/03/29 02:53:01;;;;;;;41.23;20.60;;;11.30;99.90;;;;;;4975321;28;20642;-71
2022/03/29 02:55:29;;;;;;;40.83;23.07;;;11.30;99.90;;;;;;4974135;28;20515;-71
2022/03/29 02:57:56;;;;;;;44.33;21.83;;;11.40;99.90;;;;;;4991948;28;20234;-71
2022/03/29 03:00:22;;;;;;;38.83;21.90;;;11.40;99.90;;;;;;4962930;28;20189;-70
2022/03/29 03:02:50;;;;;;;38.07;22.27;;;11.30;99.90;;;;;;4973636;28;20243;-73
2022/03/29 03:05:17;;;;;;;46.20;24.20;;;11.40;99.90;;;;;;4985873;28;20181;-71
2022/03/29 03:07:44;;;;;;;44.60;22.70;;;11.40;99.90;;;;;;4980256;28;20270;-71
2022/03/29 03:10:10;;;;;;;36.43;22.33;;;11.20;99.90;;;;;;4974757;28;20193;-71
2022/03/29 03:12:37;;;;;;;43.33;22.33;;;11.20;99.90;;;;;;4974546;28;20193;-71
2022/03/29 03:15:05;;;;;;;39.93;21.23;;;11.20;99.90;;;;;;4976429;28;20535;-71
2022/03/29 03:17:30;;;;;;;46.93;20.80;;;11.10;99.90;;;;;;4987958;28;20239;-71
2022/03/29 03:19:56;;;;;;;34.67;21.40;;;10.90;99.90;;;;;;4973885;28;20228;-71
2022/03/29 03:22:22;;;;;;;39.83;22.75;;;11.00;99.90;;;;;;4973680;28;20181;-71
2022/03/29 03:24:47;;;;;;;38.28;20.42;;;11.10;99.90;;;;;;4973634;28;20165;-73
2022/03/29 03:27:13;;;;;;;42.58;20.02;;;11.10;99.90;;;;;;4957862;28;20582;-71
2022/03/29 03:29:39;;;;;;;40.47;20.47;;;11.10;99.90;;;;;;4976404;28;20199;-71
2022/03/29 03:32:05;;;;;;;39.13;20.37;;;11.00;99.90;;;;;;4971214;28;20638;-71
2022/03/29 03:34:31;;;;;;;37.13;19.90;;;10.90;99.90;;;;;;4973590;28;20192;-71
2022/03/29 03:36:58;;;;;;;33.90;18.00;;;10.80;99.90;;;;;;4973177;28;20219;-71
2022/03/29 03:39:24;;;;;;;27.53;17.67;;;10.70;99.90;;;;;;4974713;28;20220;-71
2022/03/29 03:41:49;;;;;;;39.43;20.20;;;10.60;99.90;;;;;;4972971;28;20276;-72
2022/03/29 03:44:15;;;;;;;35.37;17.93;;;10.70;99.90;;;;;;4986424;28;20184;-71
2022/03/29 03:46:41;;;;;;;36.97;18.93;;;10.90;99.90;;;;;;4973408;28;21936;-71
2022/03/29 03:49:06;;;;;;;33.40;18.33;;;11.00;99.90;;;;;;4973293;28;20608;-71
2022/03/29 03:51:33;;;;;;;40.17;19.73;;;11.00;99.90;;;;;;4973774;28;20271;-71
2022/03/29 03:53:59;;;;;;;42.03;18.63;;;10.90;99.90;;;;;;4974524;28;20189;-71
2022/03/29 03:56:25;;;;;;;35.13;15.40;;;10.90;99.90;;;;;;4974402;28;20197;-71
2022/03/29 03:58:50;;;;;;;47.17;19.63;;;10.80;99.90;;;;;;4973263;28;20220;-71
2022/03/29 04:01:16;;;;;;;33.77;17.33;;;10.80;99.90;;;;;;4974200;28;20224;-71
2022/03/29 04:03:41;;;;;;;37.43;16.77;;;10.60;99.90;;;;;;4957087;28;20192;-71
2022/03/29 04:06:07;;;;;;;39.10;17.00;;;10.60;99.90;;;;;;4957106;28;20184;-71
2022/03/29 04:08:33;;;;;;;31.20;16.80;;;10.60;99.90;;;;;;4973224;28;20196;-71
2022/03/29 04:10:59;;;;;;;33.70;15.20;;;10.60;99.90;;;;;;4981742;28;20251;-71
2022/03/29 04:13:25;;;;;;;32.20;16.47;;;10.60;99.90;;;;;;4974551;28;20184;-70
2022/03/29 04:15:50;;;;;;;38.23;17.27;;;10.80;99.90;;;;;;4972753;28;20642;-71
2022/03/29 04:18:16;;;;;;;36.57;18.10;;;10.90;99.90;;;;;;4989417;28;20211;-70
2022/03/29 04:20:43;;;;;;;30.37;16.43;;;10.90;99.90;;;;;;4978143;28;20188;-70
2022/03/29 04:23:09;;;;;;;33.97;15.50;;;10.90;99.90;;;;;;4987716;28;20276;-70
2022/03/29 04:25:35;;;;;;;32.63;16.73;;;10.90;99.90;;;;;;4981914;28;20223;-71
2022/03/29 04:28:01;;;;;;;38.43;16.20;;;11.00;99.90;;;;;;4974377;28;20187;-71
2022/03/29 04:30:27;;;;;;;32.30;15.67;;;10.90;99.90;;;;;;4983677;28;20192;-71
2022/03/29 04:32:54;;;;;;;27.57;15.37;;;10.90;99.90;;;;;;4978174;28;20638;-72
2022/03/29 04:35:20;;;;;;;27.87;17.10;;;10.70;99.90;;;;;;4977756;28;20181;-71
2022/03/29 04:37:46;;;;;;;30.03;17.13;;;10.50;99.90;;;;;;4976572;28;20191;-72
2022/03/29 04:40:12;;;;;;;30.23;16.33;;;10.50;99.90;;;;;;4976789;28;20299;-71
2022/03/29 04:42:49;;;;;;;36.73;17.43;;;10.50;99.90;;;;;;4977113;28;20169;-71
2022/03/29 04:45:15;;;;;;;33.03;16.23;;;10.50;99.90;;;;;;4977767;28;20191;-71
2022/03/29 04:47:43;;;;;;;42.17;17.97;;;10.50;99.90;;;;;;4977601;28;20189;-71
2022/03/29 04:50:11;;;;;;;35.67;16.27;;;10.40;99.90;;;;;;4976047;28;20212;-71
2022/03/29 04:52:39;;;;;;;29.17;16.07;;;10.40;99.90;;;;;;4976355;28;20184;-71
2022/03/29 04:55:06;;;;;;;30.00;16.60;;;10.50;99.90;;;;;;4972917;28;20230;-71
2022/03/29 04:57:32;;;;;;;37.23;18.93;;;10.40;99.90;;;;;;4987292;28;20235;-71
2022/03/29 04:59:58;;;;;;;29.63;16.67;;;10.30;99.90;;;;;;4985761;28;20611;-71
2022/03/29 05:02:23;;;;;;;31.00;17.87;;;10.30;99.90;;;;;;4976126;28;20275;-71
2022/03/29 05:04:51;;;;;;;34.50;17.97;;;10.30;99.90;;;;;;4977833;28;20532;-70
2022/03/29 05:07:17;;;;;;;29.53;17.67;;;10.30;99.90;;;;;;4944749;28;20659;-71
2022/03/29 05:09:42;;;;;;;32.97;17.43;;;10.30;99.90;;;;;;4977145;28;20188;-71
2022/03/29 05:12:08;;;;;;;38.80;17.63;;;10.20;99.90;;;;;;4982431;28;20188;-71
2022/03/29 05:14:34;;;;;;;30.83;18.10;;;10.20;99.90;;;;;;4976812;28;20323;-71
2022/03/29 05:17:00;;;;;;;31.90;16.80;;;10.20;99.90;;;;;;4985019;28;20240;-71
2022/03/29 05:19:26;;;;;;;26.53;16.10;;;10.20;99.90;;;;;;4993054;28;20219;-71
2022/03/29 05:21:52;;;;;;;28.07;15.60;;;10.10;99.90;;;;;;4966099;28;20196;-72
2022/03/29 05:24:19;;;;;;;27.30;15.43;;;10.10;99.90;;;;;;4978039;28;20748;-71
2022/03/29 05:26:45;;;;;;;35.13;16.07;;;10.10;99.90;;;;;;4959656;28;20189;-72
2022/03/29 05:29:11;;;;;;;35.37;17.43;;;10.00;99.90;;;;;;4983098;28;20251;-71
2022/03/29 05:31:38;;;;;;;32.97;16.20;;;10.00;99.90;;;;;;4975768;28;20276;-71
2022/03/29 05:34:04;;;;;;;29.97;16.33;;;9.90;99.90;;;;;;4956976;28;20524;-71
2022/03/29 05:36:30;;;;;;;41.47;18.23;;;9.70;99.90;;;;;;4983755;28;20303;-71
2022/03/29 05:38:56;;;;;;;41.17;18.13;;;9.70;99.90;;;;;;4993965;28;20254;-71
2022/03/29 05:41:21;;;;;;;35.60;18.23;;;9.80;99.90;;;;;;4993927;28;20223;-71
2022/03/29 05:43:48;;;;;;;29.40;17.63;;;9.80;99.90;;;;;;4973320;28;20644;-71
2022/03/29 05:48:59;;;;;;;27.13;15.37;;;9.90;99.90;;;;;;4984133;28;22497;-71
2022/03/29 05:51:26;;;;;;;33.83;17.30;;;10.00;99.90;;;;;;4980932;28;20192;-72
2022/03/29 05:53:53;;;;;;;32.47;16.87;;;10.00;99.90;;;;;;4960481;28;20188;-72
2022/03/29 05:56:20;;;;;;;31.43;17.60;;;10.00;99.90;;;;;;4986099;28;20203;-71
2022/03/29 05:58:46;;;;;;;33.77;17.00;;;10.00;99.90;;;;;;4974857;28;20212;-71
2022/03/29 06:01:11;;;;;;;34.13;17.03;;;10.00;99.90;;;;;;4975545;28;20196;-70
2022/03/29 06:03:37;;;;;;;35.70;17.60;;;10.10;99.90;;;;;;4976015;28;20669;-70
2022/03/29 06:06:03;;;;;;;38.63;17.73;;;10.20;99.90;;;;;;4974755;28;20223;-71
2022/03/29 06:08:29;;;;;;;26.17;15.20;;;10.30;99.90;;;;;;4975435;28;20204;-71
2022/03/29 06:10:56;;;;;;;31.30;16.83;;;10.20;99.90;;;;;;4973939;28;20193;-78
2022/03/29 06:13:21;;;;;;;32.37;17.43;;;10.20;99.90;;;;;;4974922;28;20180;-75
2022/03/29 06:15:47;;;;;;;29.57;16.83;;;10.30;99.90;;;;;;4943039;28;20251;-71
2022/03/29 06:18:13;;;;;;;37.10;17.70;;;10.40;99.90;;;;;;4975073;28;20215;-72
2022/03/29 06:20:39;;;;;;;33.93;17.60;;;10.40;99.90;;;;;;4975099;28;20200;-75
2022/03/29 06:23:04;;;;;;;42.33;17.47;;;10.60;99.90;;;;;;4974481;28;20709;-74
2022/03/29 06:25:34;;;;;;;37.77;18.20;;;10.60;99.90;;;;;;4976438;28;20189;-75
2022/03/29 06:28:00;;;;;;;34.17;17.20;;;10.60;99.90;;;;;;4976276;28;20711;-75
2022/03/29 06:30:26;;;;;;;32.73;16.60;;;10.90;99.90;;;;;;4975851;28;20213;-76
2022/03/29 06:32:53;;;;;;;41.03;18.40;;;10.90;99.90;;;;;;4974321;28;20189;-78
2022/03/29 06:35:21;;;;;;;35.47;18.43;;;10.80;99.90;;;;;;4976028;28;20259;-78
2022/03/29 06:37:48;;;;;;;35.13;18.17;;;10.80;99.90;;;;;;4989155;28;20192;-78
2022/03/29 06:40:14;;;;;;;34.43;17.53;;;10.70;99.90;;;;;;4986670;28;20665;-78
2022/03/29 06:42:40;;;;;;;39.20;17.70;;;10.80;99.90;;;;;;4993022;28;20206;-78
2022/03/29 06:45:08;;;;;;;37.23;16.97;;;11.10;99.90;;;;;;4982186;28;20187;-76
2022/03/29 06:47:33;;;;;;;33.70;18.10;;;11.30;99.90;;;;;;4984361;28;20653;-74
2022/03/29 06:49:59;;;;;;;31.57;17.30;;;11.10;99.90;;;;;;4962641;28;20199;-75
2022/03/29 06:52:26;;;;;;;33.20;16.42;;;11.10;99.90;;;;;;4957687;28;20669;-79
2022/03/29 06:54:52;;;;;;;26.17;16.35;;;11.30;99.90;;;;;;4970717;28;20275;-74
2022/03/29 06:57:18;;;;;;;42.83;17.42;;;11.30;99.90;;;;;;4984504;28;20262;-77
2022/03/29 06:59:44;;;;;;;29.45;17.23;;;11.50;99.90;;;;;;4959623;28;20216;-74
2022/03/29 07:02:10;;;;;;;32.88;18.02;;;11.20;99.90;;;;;;4985766;28;20185;-76
2022/03/29 07:04:35;;;;;;;31.95;19.15;;;11.30;99.90;;;;;;4973888;28;20189;-78
2022/03/29 07:07:01;;;;;;;28.55;17.35;;;11.30;99.90;;;;;;4957601;28;20188;-76
2022/03/29 07:12:12;;;;;;;38.05;17.73;;;11.70;99.90;;;;;;4979364;28;20212;-73
2022/03/29 07:14:37;;;;;;;37.88;17.70;;;11.60;99.90;;;;;;4974456;28;20189;-76
2022/03/29 07:17:07;;;;;;;33.00;18.20;;;11.40;99.90;;;;;;4974275;28;20554;-77
2022/03/29 07:19:33;;;;;;;28.13;17.83;;;11.20;99.90;;;;;;4975119;28;20216;-76
2022/03/29 07:21:59;;;;;;;31.55;18.15;;;11.30;99.90;;;;;;4976022;28;20554;-76
2022/03/29 07:24:25;;;;;;;32.17;17.50;;;11.50;99.90;;;;;;4966106;28;20193;-75
2022/03/29 07:26:50;;;;;;;44.28;18.40;;;11.70;99.90;;;;;;4960406;28;20180;-76
2022/03/29 07:29:17;;;;;;;39.70;19.17;;;11.90;99.90;;;;;;4961827;28;20649;-77
2022/03/29 07:31:43;;;;;;;36.25;19.38;;;12.00;99.90;;;;;;4975360;28;20177;-74
2022/03/29 07:34:09;;;;;;;29.00;17.67;;;12.30;99.90;;;;;;4974337;28;20181;-73
2022/03/29 07:36:38;;;;;;;32.85;17.42;;;12.50;99.90;;;;;;4980795;28;20277;-71
2022/03/29 07:39:04;;;;;;;44.95;19.00;;;12.60;99.90;;;;;;4977855;28;20223;-81
2022/03/29 07:41:31;;;;;;;34.80;20.65;;;12.70;99.90;;;;;;4976158;28;20669;-74
2022/03/29 07:43:57;;;;;;;35.50;19.13;;;12.60;99.90;;;;;;4978042;28;20188;-77
2022/03/29 07:46:23;;;;;;;34.55;18.33;;;12.50;99.90;;;;;;4970207;28;20551;-73
2022/03/29 07:48:49;;;;;;;46.65;19.63;;;12.50;99.90;;;;;;4980691;28;20685;-82
2022/03/29 07:51:16;;;;;;;32.47;17.90;;;12.60;99.90;;;;;;4965370;28;20663;-78
2022/03/29 07:53:42;;;;;;;31.95;18.60;;;12.90;99.90;;;;;;4986198;28;20192;-83
2022/03/29 07:56:08;;;;;;;33.67;17.67;;;13.10;99.90;;;;;;4979292;28;20679;-84
2022/03/29 07:58:33;;;;;;;35.42;19.42;;;13.10;99.90;;;;;;4974219;28;20678;-73
2022/03/29 08:01:00;;;;;;;29.13;17.83;;;12.90;99.90;;;;;;4957219;28;20195;-83
2022/03/29 08:03:32;;;;;;;35.05;18.80;;;13.10;99.90;;;;;;4957874;28;20557;-84
2022/03/29 08:05:58;;;;;;;33.28;17.50;;;13.10;99.90;;;;;;4975916;28;20195;-84
2022/03/29 08:08:24;;;;;;;30.48;19.60;;;13.20;99.90;;;;;;4975834;28;20194;-84
2022/03/29 08:10:50;;;;;;;38.10;18.30;;;13.30;99.90;;;;;;4950067;28;20564;-74
2022/03/29 08:13:16;;;;;;;35.22;18.63;;;13.30;99.90;;;;;;4973340;28;20673;-78
2022/03/29 08:15:45;;;;;;;29.23;18.02;;;13.40;99.90;;;;;;4974028;28;20609;-76
2022/03/29 08:18:10;;;;;;;43.97;19.27;;;13.70;99.90;;;;;;4972419;28;20229;-80
2022/03/29 08:20:37;;;;;;;26.60;17.63;;;13.70;99.90;;;;;;4956686;28;20937;-77
2022/03/29 08:23:04;;;;;;;36.72;21.48;;;13.60;99.90;;;;;;4973940;28;20672;-77
2022/03/29 08:25:31;;;;;;;39.20;19.55;;;13.30;99.90;;;;;;4956768;28;20220;-77
2022/03/29 08:27:59;;;;;;;30.42;20.42;;;13.20;99.90;;;;;;4962917;28;20247;-78
2022/03/29 08:30:25;;;;;;;47.45;23.00;;;13.30;99.90;;;;;;4972447;28;20275;-72
2022/03/29 08:32:51;;;;;;;38.17;18.95;;;13.10;99.90;;;;;;4956301;28;20243;-81
2022/03/29 08:35:17;;;;;;;34.65;20.80;;;13.20;99.90;;;;;;4976871;28;20646;-74
2022/03/29 08:37:43;;;;;;;43.22;22.27;;;13.70;99.90;;;;;;4973525;28;20658;-78
2022/03/29 08:40:13;;;;;;;38.42;19.77;;;14.00;99.90;;;;;;4959116;28;20235;-73
2022/03/29 08:42:44;;;;;;;37.75;21.23;;;14.00;99.90;;;;;;4974716;28;20276;-71
2022/03/29 08:45:12;;;;;;;35.80;20.88;;;14.30;99.90;;;;;;4973755;28;20200;-70
2022/03/29 08:47:40;;;;;;;39.65;21.77;;;14.30;99.90;;;;;;4983343;28;20662;-70
2022/03/29 08:50:08;;;;;;;34.42;19.95;;;14.20;99.90;;;;;;4973399;28;20263;-71
2022/03/29 08:52:35;;;;;;;42.00;21.52;;;14.50;99.90;;;;;;4973440;28;20518;-70
2022/03/29 08:55:03;;;;;;;34.30;20.52;;;14.30;99.90;;;;;;4981559;28;20196;-71
2022/03/29 08:57:32;;;;;;;38.28;21.77;;;14.10;99.90;;;;;;4973692;28;20239;-71
2022/03/29 08:59:59;;;;;;;41.05;21.95;;;14.00;99.90;;;;;;4981891;28;20220;-70
2022/03/29 09:02:25;;;;;;;39.97;22.27;;;13.90;99.90;;;;;;4972353;28;20177;-70
2022/03/29 09:05:15;;;;;;;33.20;20.30;;;13.80;99.90;;;;;;4973317;28;20285;-74
2022/03/29 09:07:58;;;;;;;40.90;21.10;;;13.70;99.90;;;;;;4981367;28;20699;-76
2022/03/29 09:10:48;;;;;;;45.05;23.08;;;14.00;99.90;;;;;;4975833;28;20193;-72
2022/03/29 09:13:20;;;;;;;38.00;20.60;;;14.30;99.90;;;;;;4977394;28;20207;-69
2022/03/29 09:15:48;;;;;;;39.38;21.13;;;14.70;99.90;;;;;;4984271;28;20231;-73
2022/03/29 09:18:14;;;;;;;36.65;21.25;;;14.70;99.90;;;;;;4988835;28;20188;-69
2022/03/29 09:20:40;;;;;;;42.90;24.55;;;14.50;99.90;;;;;;4975631;28;20176;-68
2022/03/29 09:23:18;;;;;;;36.13;22.63;;;14.60;99.90;;;;;;4977157;28;20263;-71
2022/03/29 09:25:49;;;;;;;41.97;22.55;;;14.60;99.90;;;;;;4977436;28;20227;-71
2022/03/29 09:28:17;;;;;;;41.20;23.63;;;15.00;99.90;;;;;;4981438;28;20266;-72
2022/03/29 09:30:53;;;;;;;38.97;22.27;;;15.00;99.90;;;;;;4977262;28;20181;-72
2022/03/29 09:33:20;;;;;;;38.10;22.95;;;14.80;99.90;;;;;;4975954;28;20196;-72
2022/03/29 09:35:56;;;;;;;39.60;23.38;;;14.80;99.90;;;;;;4977523;28;20701;-72
2022/03/29 09:38:30;;;;;;;42.97;23.27;;;14.60;99.90;;;;;;4985924;28;20200;-72
2022/03/29 09:40:56;;;;;;;45.40;23.85;;;14.60;99.90;;;;;;4976204;28;20664;-72
2022/03/29 09:43:28;;;;;;;56.17;22.40;;;15.00;99.90;;;;;;4975749;28;20280;-70
2022/03/29 09:45:58;;;;;;;46.08;21.65;;;15.10;99.90;;;;;;4976096;28;20195;-72
2022/03/29 09:48:24;;;;;;;44.45;23.42;;;15.00;99.90;;;;;;4976050;28;20187;-72
2022/03/29 09:50:53;;;;;;;40.67;23.20;;;15.10;99.90;;;;;;4982286;28;20200;-72
2022/03/29 09:53:34;;;;;;;47.83;23.67;;;15.10;99.90;;;;;;4990276;28;20286;-72
2022/03/29 09:56:01;;;;;;;43.40;24.13;;;15.00;99.90;;;;;;4974926;28;20192;-73
2022/03/29 09:58:27;;;;;;;43.47;24.33;;;14.80;99.90;;;;;;4974225;28;20203;-72
2022/03/29 10:00:53;;;;;;;39.88;22.67;;;14.80;99.90;;;;;;4958944;28;20220;-72
2022/03/29 10:03:19;;;;;;;43.17;22.77;;;14.90;99.90;;;;;;4983837;28;20227;-72
2022/03/29 10:05:49;;;;;;;40.33;21.20;;;14.80;99.90;;;;;;4988118;28;20192;-72
2022/03/29 10:11:02;;;;;;;37.75;20.30;;;15.40;99.90;;;;;;4976156;28;20665;-72
2022/03/29 10:13:29;;;;;;;38.40;22.10;;;16.00;99.90;;;;;;4958257;28;20193;-73
2022/03/29 10:15:56;;;;;;;42.38;22.17;;;16.00;99.90;;;;;;4958789;28;20192;-72
2022/03/29 10:18:24;;;;;;;36.60;21.45;;;15.80;99.90;;;;;;4975480;28;20709;-72
2022/03/29 10:20:51;;;;;;;39.97;22.17;;;16.00;99.90;;;;;;4975214;28;20192;-73
2022/03/29 10:23:21;;;;;;;43.03;22.67;;;15.70;99.90;;;;;;4986126;28;20184;-73
2022/03/29 10:25:48;;;;;;;39.78;21.40;;;15.70;99.90;;;;;;4973902;28;20215;-73
2022/03/29 10:28:14;;;;;;;42.92;20.60;;;15.60;99.90;;;;;;4975067;28;20204;-73
2022/03/29 10:30:41;;;;;;;51.38;23.13;;;15.50;99.90;;;;;;4982283;28;20189;-73
2022/03/29 10:33:33;;;;;;;39.05;19.10;;;15.50;99.90;;;;;;4958030;28;20318;-73
2022/03/29 10:35:59;;;;;;;42.00;21.77;;;15.50;99.90;;;;;;4977493;28;20278;-73
2022/03/29 10:38:45;;;;;;;34.45;19.95;;;15.70;99.90;;;;;;4981988;28;20204;-73
2022/03/29 10:41:26;;;;;;;36.88;20.15;;;15.70;99.90;;;;;;4992039;28;20657;-73
2022/03/29 10:44:14;;;;;;;40.60;21.40;;;15.80;99.90;;;;;;4975203;28;20200;-76
2022/03/29 10:46:48;;;;;;;42.90;21.35;;;16.00;99.90;;;;;;4973919;28;20576;-73
2022/03/29 10:49:21;;;;;;;43.22;21.23;;;16.00;99.90;;;;;;4974947;28;20288;-73
2022/03/29 10:52:16;;;;;;;36.53;21.60;;;15.60;99.90;;;;;;4975137;28;20184;-73
2022/03/29 10:54:42;;;;;;;40.33;20.80;;;15.60;99.90;;;;;;4973913;28;20181;-73
2022/03/29 10:57:24;;;;;;;40.58;19.92;;;15.70;99.90;;;;;;4985704;28;20212;-73
2022/03/29 11:00:11;;;;;;;41.42;21.83;;;15.70;99.90;;;;;;4974578;28;20224;-72
2022/03/29 11:02:38;;;;;;;34.70;19.65;;;15.90;99.90;;;;;;4959916;28;20193;-73
2022/03/29 11:05:07;;;;;;;42.95;21.70;;;16.10;99.90;;;;;;4975950;28;20645;-73
2022/03/29 11:07:53;;;;;;;33.22;18.88;;;16.00;99.90;;;;;;4975397;28;20279;-74
2022/03/29 11:10:21;;;;;;;38.10;19.98;;;16.40;99.90;;;;;;4981401;28;20197;-74
2022/03/29 11:12:49;;;;;;;38.05;22.27;;;16.70;99.90;;;;;;4974361;28;20617;-73
2022/03/29 11:16:02;;;;;;;40.13;22.90;;;16.90;99.90;;;;;;4988918;28;20208;-73
2022/03/29 11:18:30;;;;;;;31.60;19.05;;;17.10;99.90;;;;;;4974527;28;20287;-72
2022/03/29 11:21:02;;;;;;;39.97;21.48;;;16.80;99.90;;;;;;4992364;28;20521;-72
2022/03/29 11:23:35;;;;;;;37.70;20.77;;;16.60;99.90;;;;;;4961792;28;20600;-72
2022/03/29 11:26:12;;;;;;;35.35;21.38;;;16.80;99.90;;;;;;4986515;28;20256;-72
2022/03/29 11:29:00;;;;;;;44.40;22.63;;;16.70;99.90;;;;;;4979150;28;20180;-73
2022/03/29 11:31:33;;;;;;;38.15;20.40;;;16.60;99.90;;;;;;4983824;28;20189;-73
2022/03/29 11:33:59;;;;;;;38.88;22.30;;;16.60;99.90;;;;;;4974526;28;20208;-74
2022/03/29 11:36:25;;;;;;;35.47;21.90;;;16.60;99.90;;;;;;4972648;28;20708;-73
2022/03/29 11:38:50;;;;;;;39.75;19.95;;;17.10;99.90;;;;;;4972747;28;20232;-74
2022/03/29 11:41:30;;;;;;;40.13;20.75;;;17.00;99.90;;;;;;4940553;28;20607;-73
2022/03/29 11:44:03;;;;;;;39.00;21.40;;;16.90;99.90;;;;;;4978164;28;20183;-73
2022/03/29 11:46:49;;;;;;;35.50;20.55;;;17.10;99.90;;;;;;4976656;28;20709;-73
2022/03/29 11:49:19;;;;;;;34.60;21.45;;;17.20;99.90;;;;;;4973969;28;20675;-73
2022/03/29 11:52:06;;;;;;;37.38;20.92;;;17.10;99.90;;;;;;4978126;28;20234;-73
2022/03/29 11:54:38;;;;;;;34.10;21.20;;;17.00;99.90;;;;;;4988174;28;20184;-74
2022/03/29 11:57:27;;;;;;;37.22;19.38;;;17.40;99.90;;;;;;4973696;28;20207;-73
2022/03/29 11:59:55;;;;;;;33.92;20.70;;;17.40;99.90;;;;;;4973078;28;20748;-74
2022/03/29 12:02:25;;;;;;;38.13;20.85;;;17.40;99.90;;;;;;4972496;28;20669;-73
2022/03/29 12:04:52;;;;;;;41.13;20.80;;;17.40;99.90;;;;;;4979574;28;20246;-74
2022/03/29 12:07:38;;;;;;;29.90;18.50;;;17.20;99.90;;;;;;4992346;28;20190;-74
2022/03/29 12:10:05;;;;;;;31.77;18.58;;;17.40;99.90;;;;;;4978549;28;20385;-72
2022/03/29 12:12:30;;;;;;;37.70;19.58;;;17.30;99.90;;;;;;4974001;28;20261;-73
2022/03/29 12:15:04;;;;;;;31.38;19.13;;;17.10;99.90;;;;;;4977725;28;20318;-72
2022/03/29 12:17:30;;;;;;;30.50;19.05;;;17.10;99.90;;;;;;4986332;28;20271;-72
2022/03/29 12:19:56;;;;;;;30.50;19.40;;;17.00;99.90;;;;;;4972110;28;20299;-72
2022/03/29 12:22:23;;;;;;;33.78;18.45;;;17.20;99.90;;;;;;4972180;28;20299;-72
2022/03/29 12:24:55;;;;;;;43.75;23.92;;;16.90;99.90;;;;;;4973830;28;20184;-73
2022/03/29 12:27:21;;;;;;;41.40;24.52;;;17.00;99.90;;;;;;4972314;28;20188;-72
2022/03/29 12:30:01;;;;;;;38.97;23.95;;;17.10;99.90;;;;;;4974244;28;20220;-71
2022/03/29 12:32:26;;;;;;;43.10;22.60;;;17.00;99.90;;;;;;4972695;28;20263;-72
2022/03/29 12:35:02;;;;;;;46.08;23.73;;;17.00;99.90;;;;;;4980096;28;20247;-72
2022/03/29 12:37:27;;;;;;;42.35;23.92;;;16.90;99.90;;;;;;4985904;28;20664;-72
2022/03/29 12:39:56;;;;;;;44.22;23.17;;;16.90;99.90;;;;;;4973530;28;20260;-72
2022/03/29 12:42:22;;;;;;;49.03;26.30;;;17.00;99.90;;;;;;4981698;28;20184;-70
2022/03/29 12:45:00;;;;;;;47.00;23.48;;;17.00;99.90;;;;;;4995993;28;20188;-73